Time;durP1;ratioP1;P1;durP2;ratioP2;P2;SDS_P1;SDS_P2;PMS_P1;PMS_P2;Temp;Humidity;BMP_temperature;BMP_pressure;BME280_temperature;BME280_humidity;BME280_pressure;Samples;Min_cycle;Max_cycle;Signal;HPM_P1;HPM_P2
2022/01/01 00:00:45;;;;;;;70.15;31.50;;;;;;;;;;5120006;28;20044;-83
2022/01/01 00:03:12;;;;;;;77.57;35.17;;;;;;;;;;5097981;28;20063;-82
2022/01/01 00:05:38;;;;;;;83.90;37.15;;;;;;;;;;5103124;28;20048;-82
2022/01/01 00:08:05;;;;;;;102.15;47.75;;;11.80;99.90;;;;;;5084548;28;20048;-82
2022/01/01 00:10:32;;;;;;;122.18;57.05;;;;;;;;;;5109292;28;20044;-81
2022/01/01 00:12:58;;;;;;;97.63;45.70;;;;;;;;;;5112222;28;20048;-82
2022/01/01 00:15:24;;;;;;;77.15;33.42;;;;;;;;;;5094828;28;20047;-82
2022/01/01 00:17:50;;;;;;;72.97;32.28;;;;;;;;;;5093583;28;20101;-82
2022/01/01 00:20:16;;;;;;;83.03;32.17;;;;;;;;;;5105599;28;20055;-83
2022/01/01 00:22:43;;;;;;;70.28;29.58;;;11.70;99.90;;;;;;5081246;28;20080;-83
2022/01/01 00:25:10;;;;;;;72.35;31.25;;;11.60;99.90;;;;;;5079782;28;20044;-82
2022/01/01 00:27:36;;;;;;;77.97;33.42;;;;;;;;;;5096529;28;20088;-82
2022/01/01 00:30:06;;;;;;;83.10;36.08;;;11.70;99.90;;;;;;5100421;28;20473;-83
2022/01/01 00:32:32;;;;;;;89.95;39.40;;;;;;;;;;5078904;28;20090;-83
2022/01/01 00:34:58;;;;;;;86.13;40.10;;;;;;;;;;5095269;28;20044;-83
2022/01/01 00:37:24;;;;;;;98.75;41.30;;;;;;;;;;5113802;28;20055;-83
2022/01/01 00:39:50;;;;;;;103.70;44.10;;;;;;;;;;5079169;28;20379;-83
2022/01/01 00:42:16;;;;;;;96.00;44.53;;;;;;;;;;5095941;28;20043;-83
2022/01/01 00:44:42;;;;;;;100.50;43.63;;;;;;;;;;5095568;28;20040;-82
2022/01/01 00:47:08;;;;;;;105.55;44.15;;;;;;;;;;5078689;28;20055;-84
2022/01/01 00:49:34;;;;;;;91.15;42.70;;;;;;;;;;5078500;28;20104;-82
2022/01/01 00:52:00;;;;;;;92.13;40.15;;;;;;;;;;5078780;28;20051;-83
2022/01/01 00:54:26;;;;;;;91.10;41.45;;;;;;;;;;5095147;28;20050;-83
2022/01/01 00:56:52;;;;;;;93.20;40.97;;;;;;;;;;5095485;28;20063;-83
2022/01/01 00:59:19;;;;;;;90.97;43.20;;;;;;;;;;5095297;28;20055;-82
2022/01/01 01:01:45;;;;;;;105.85;49.35;;;;;;;;;;5094947;28;20177;-83
2022/01/01 01:04:11;;;;;;;94.60;45.45;;;;;;;;;;5095531;28;20100;-83
2022/01/01 01:06:37;;;;;;;95.55;45.92;;;;;;;;;;5082915;28;20059;-83
2022/01/01 01:09:03;;;;;;;102.28;47.20;;;;;;;;;;5099237;28;20036;-82
2022/01/01 01:11:29;;;;;;;95.65;47.13;;;;;;;;;;5099475;28;20056;-82
2022/01/01 01:13:58;;;;;;;101.90;50.03;;;;;;;;;;5099337;28;20055;-82
2022/01/01 01:16:26;;;;;;;105.25;51.05;;;11.50;99.90;;;;;;5082097;28;20044;-83
2022/01/01 01:18:54;;;;;;;95.63;47.03;;;;;;;;;;5081958;28;20485;-82
2022/01/01 01:21:23;;;;;;;108.45;47.67;;;11.50;99.90;;;;;;5117420;28;20040;-82
2022/01/01 01:23:53;;;;;;;113.00;49.92;;;;;;;;;;5099412;28;20039;-83
2022/01/01 01:26:19;;;;;;;109.45;51.90;;;;;;;;;;5117514;28;20503;-83
2022/01/01 01:28:48;;;;;;;123.82;58.95;;;;;;;;;;5082509;28;20047;-83
2022/01/01 01:31:15;;;;;;;138.13;65.50;;;11.40;99.90;;;;;;5117163;28;20044;-82
2022/01/01 01:33:41;;;;;;;122.82;57.60;;;;;;;;;;5082136;28;20047;-83
2022/01/01 01:36:07;;;;;;;124.72;59.10;;;11.70;99.90;;;;;;5082101;28;20048;-83
2022/01/01 01:38:36;;;;;;;123.88;59.00;;;;;;;;;;5099393;28;20055;-83
2022/01/01 01:41:03;;;;;;;152.98;68.13;;;11.40;99.90;;;;;;5099492;28;20054;-82
2022/01/01 01:43:30;;;;;;;155.90;75.50;;;;;;;;;;5082124;28;20059;-83
2022/01/01 01:45:57;;;;;;;124.88;58.50;;;;;;;;;;5117237;28;20071;-82
2022/01/01 01:48:23;;;;;;;138.32;66.97;;;;;;;;;;5098777;28;20048;-82
2022/01/01 01:50:49;;;;;;;131.90;61.65;;;;;;;;;;5081777;28;20477;-84
2022/01/01 01:53:16;;;;;;;123.93;58.45;;;;;;;;;;5081815;28;20132;-83
2022/01/01 01:55:42;;;;;;;128.38;59.47;;;11.40;99.90;;;;;;5098800;28;20054;-84
2022/01/01 01:58:08;;;;;;;128.38;63.72;;;11.20;99.90;;;;;;5117150;28;20066;-82
2022/01/01 02:03:00;;;;;;;148.10;71.72;;;11.40;99.90;;;;;;5098588;28;20101;-83
2022/01/01 02:05:26;;;;;;;149.40;72.03;;;;;;;;;;5099173;28;20473;-82
2022/01/01 02:07:53;;;;;;;138.85;68.53;;;;;;;;;;5116920;28;20073;-83
2022/01/01 02:10:19;;;;;;;136.43;64.70;;;;;;;;;;5081327;28;20043;-82
2022/01/01 02:12:54;;;;;;;139.40;65.93;;;11.30;99.90;;;;;;5116677;28;20075;-82
2022/01/01 02:18:14;;;;;;;134.57;68.22;;;;;;;;;;5098053;28;20058;-82
2022/01/01 02:20:40;;;;;;;150.43;70.03;;;;;;;;;;5082064;28;20052;-82
2022/01/01 02:23:11;;;;;;;129.73;62.53;;;;;;;;;;5081945;28;20126;-82
2022/01/01 02:25:37;;;;;;;132.45;58.08;;;;;;;;;;5098597;28;20047;-83
2022/01/01 02:28:03;;;;;;;127.30;61.17;;;;;;;;;;5081735;28;20394;-82
2022/01/01 02:30:32;;;;;;;130.48;58.45;;;;;;;;;;5115489;28;20825;-82
2022/01/01 02:32:58;;;;;;;130.13;58.05;;;;;;;;;;5116562;28;20043;-82
2022/01/01 02:35:24;;;;;;;117.60;56.13;;;;;;;;;;5098256;28;20099;-82
2022/01/01 02:37:53;;;;;;;157.43;72.13;;;;;;;;;;5116128;28;20071;-82
2022/01/01 02:40:19;;;;;;;120.75;54.58;;;;;;;;;;5116664;28;20040;-83
2022/01/01 02:42:51;;;;;;;121.43;54.03;;;;;;;;;;5099030;28;20040;-83
2022/01/01 02:45:17;;;;;;;136.65;56.17;;;;;;;;;;5098612;28;20086;-82
2022/01/01 02:47:43;;;;;;;126.55;56.35;;;;;;;;;;5082263;28;20044;-83
2022/01/01 02:50:09;;;;;;;125.88;54.17;;;;;;;;;;5098919;28;20504;-82
2022/01/01 02:52:35;;;;;;;123.00;54.80;;;;;;;;;;5081682;28;20092;-82
2022/01/01 02:55:01;;;;;;;133.52;55.50;;;;;;;;;;5116787;28;20044;-82
2022/01/01 02:57:27;;;;;;;124.10;52.85;;;;;;;;;;5081789;28;20393;-83
2022/01/01 02:59:54;;;;;;;125.57;57.67;;;;;;;;;;5098179;28;20378;-82
2022/01/01 03:02:20;;;;;;;125.55;56.33;;;;;;;;;;5097540;28;20405;-83
2022/01/01 03:04:46;;;;;;;126.18;57.53;;;;;;;;;;5080730;28;20558;-84
2022/01/01 03:07:12;;;;;;;133.40;57.63;;;;;;;;;;5080750;28;20040;-82
2022/01/01 03:09:38;;;;;;;132.70;58.90;;;;;;;;;;5115505;28;20046;-83
2022/01/01 03:12:12;;;;;;;129.98;59.67;;;11.20;99.90;;;;;;5096872;28;20104;-83
2022/01/01 03:14:39;;;;;;;133.17;58.73;;;;;;;;;;5080353;28;20050;-83
2022/01/01 03:17:06;;;;;;;126.75;59.47;;;11.40;99.90;;;;;;5080413;28;20290;-82
2022/01/01 03:19:32;;;;;;;134.60;59.15;;;;;;;;;;5079307;28;20811;-84
2022/01/01 03:21:59;;;;;;;128.65;60.45;;;11.20;99.90;;;;;;5096194;28;20046;-83
2022/01/01 03:24:25;;;;;;;128.50;59.35;;;;;;;;;;5096927;28;20077;-82
2022/01/01 03:26:52;;;;;;;134.68;58.85;;;;;;;;;;5115588;28;20056;-83
2022/01/01 03:29:18;;;;;;;133.88;60.50;;;;;;;;;;5097009;28;20051;-82
2022/01/01 03:31:44;;;;;;;139.20;64.03;;;;;;;;;;5079978;28;20100;-82
2022/01/01 03:34:10;;;;;;;136.68;62.90;;;;;;;;;;5096958;28;20548;-82
2022/01/01 03:36:36;;;;;;;146.43;62.35;;;;;;;;;;5080275;28;20430;-82
2022/01/01 03:39:03;;;;;;;132.82;61.95;;;11.20;99.90;;;;;;5097068;28;20055;-82
2022/01/01 03:41:29;;;;;;;132.40;61.92;;;;;;;;;;5080040;28;20413;-83
2022/01/01 03:43:55;;;;;;;134.30;63.78;;;;;;;;;;5115117;28;20165;-83
2022/01/01 03:46:21;;;;;;;139.25;63.50;;;;;;;;;;5096869;28;20104;-82
2022/01/01 03:48:47;;;;;;;138.27;65.25;;;;;;;;;;5114490;28;20054;-83
2022/01/01 03:51:13;;;;;;;135.25;64.05;;;;;;;;;;5114322;28;20108;-82
2022/01/01 03:53:38;;;;;;;138.77;63.05;;;11.30;99.90;;;;;;5078927;28;20046;-83
2022/01/01 03:56:04;;;;;;;140.93;63.67;;;11.60;99.90;;;;;;5095680;28;20044;-83
2022/01/01 03:58:30;;;;;;;134.90;62.45;;;11.20;99.90;;;;;;5113139;28;20132;-82
2022/01/01 04:00:56;;;;;;;136.80;63.97;;;11.00;99.90;;;;;;5111852;28;20516;-83
2022/01/01 04:03:22;;;;;;;135.90;64.43;;;;;;;;;;5096396;28;20046;-84
2022/01/01 04:05:48;;;;;;;126.57;62.08;;;;;;;;;;5079465;28;20051;-82
2022/01/01 04:08:14;;;;;;;132.80;62.30;;;;;;;;;;5079746;28;20075;-82
2022/01/01 04:10:40;;;;;;;126.85;59.63;;;;;;;;;;5079688;28;20043;-82
2022/01/01 04:13:08;;;;;;;131.38;62.35;;;11.20;99.90;;;;;;5114328;28;20120;-83
2022/01/01 04:15:36;;;;;;;127.18;60.22;;;11.20;99.90;;;;;;5078870;28;20089;-84
2022/01/01 04:18:08;;;;;;;131.02;58.58;;;11.20;99.90;;;;;;5095804;28;20043;-83
2022/01/01 04:20:34;;;;;;;122.72;59.22;;;;;;;;;;5096303;28;20051;-83
2022/01/01 04:23:00;;;;;;;135.90;60.50;;;;;;;;;;5095617;28;20470;-83
2022/01/01 04:25:27;;;;;;;134.38;59.97;;;11.20;99.90;;;;;;5095816;28;20051;-83
2022/01/01 04:27:55;;;;;;;128.18;59.95;;;11.20;99.90;;;;;;5112281;28;20051;-82
2022/01/01 04:30:25;;;;;;;125.53;58.25;;;9.90;99.90;;;;;;5096769;28;20077;-83
2022/01/01 04:32:51;;;;;;;129.45;59.80;;;;;;;;;;5095998;28;20043;-82
2022/01/01 04:35:17;;;;;;;128.40;60.00;;;;;;;;;;5096222;28;20043;-83
2022/01/01 04:37:43;;;;;;;126.57;59.33;;;;;;;;;;5079163;28;20039;-82
2022/01/01 04:40:10;;;;;;;133.50;60.35;;;11.20;99.90;;;;;;5113488;28;20134;-83
2022/01/01 04:42:36;;;;;;;134.57;58.67;;;;;;;;;;5078983;28;20469;-83
2022/01/01 04:45:02;;;;;;;125.50;59.60;;;11.20;99.90;;;;;;5078322;28;20043;-83
2022/01/01 04:47:28;;;;;;;127.70;58.58;;;;;;;;;;5078680;28;20481;-83
2022/01/01 04:49:54;;;;;;;129.30;59.80;;;;;;;;;;5113439;28;20184;-83
2022/01/01 04:52:20;;;;;;;140.70;61.20;;;;;;;;;;5078572;28;20043;-82
2022/01/01 04:54:46;;;;;;;133.75;63.30;;;;;;;;;;5078593;28;20048;-82
2022/01/01 04:57:13;;;;;;;144.15;63.42;;;11.20;99.90;;;;;;5078775;28;20562;-83
2022/01/01 04:59:40;;;;;;;144.18;63.67;;;11.10;99.90;;;;;;5077811;28;20051;-83
2022/01/01 05:02:06;;;;;;;140.23;64.53;;;;;;;;;;5095032;28;20059;-83
2022/01/01 05:04:32;;;;;;;148.75;66.65;;;;;;;;;;5095786;28;20509;-83
2022/01/01 05:06:59;;;;;;;141.57;66.38;;;;;;;;;;5078597;28;20046;-83
2022/01/01 05:09:27;;;;;;;139.68;64.90;;;;;;;;;;5078495;28;20077;-83
2022/01/01 05:11:55;;;;;;;140.30;63.53;;;11.50;99.90;;;;;;5078681;28;20052;-82
2022/01/01 05:14:21;;;;;;;130.02;62.90;;;;;;;;;;5078904;28;20047;-83
2022/01/01 05:16:47;;;;;;;132.38;60.45;;;;;;;;;;5078722;28;20126;-82
2022/01/01 05:19:15;;;;;;;124.45;59.60;;;;;;;;;;5078840;28;20481;-83
2022/01/01 05:21:41;;;;;;;126.60;58.97;;;;;;;;;;5095592;28;20047;-82
2022/01/01 05:24:08;;;;;;;129.18;59.20;;;11.00;99.90;;;;;;5095261;28;20043;-82
2022/01/01 05:26:34;;;;;;;129.50;57.45;;;;;;;;;;5078115;28;20055;-82
2022/01/01 05:29:00;;;;;;;127.45;57.85;;;;;;;;;;5078675;28;20048;-83
2022/01/01 05:31:27;;;;;;;126.55;59.10;;;;;;;;;;5078376;28;20405;-82
2022/01/01 05:33:55;;;;;;;127.95;58.58;;;;;;;;;;5095116;28;20052;-82
2022/01/01 05:36:21;;;;;;;124.65;57.80;;;;;;;;;;5095524;28;20115;-82
2022/01/01 05:38:47;;;;;;;121.80;57.15;;;11.20;99.90;;;;;;5078546;28;20582;-83
2022/01/01 05:41:13;;;;;;;122.00;54.63;;;11.20;99.90;;;;;;5095093;28;20039;-82
2022/01/01 05:43:39;;;;;;;114.95;55.25;;;;;;;;;;5095129;28;20071;-81
2022/01/01 05:46:06;;;;;;;114.97;53.45;;;;;;;;;;5078292;28;20052;-82
2022/01/01 05:48:32;;;;;;;117.88;52.20;;;;;;;;;;5095076;28;20050;-82
2022/01/01 05:50:58;;;;;;;111.07;49.92;;;11.20;99.90;;;;;;5094597;28;20065;-82
2022/01/01 05:53:24;;;;;;;107.72;48.90;;;;;;;;;;5081735;28;20470;-82
2022/01/01 05:55:50;;;;;;;113.55;49.95;;;;;;;;;;5098563;28;20118;-83
2022/01/01 05:58:16;;;;;;;115.78;49.78;;;;;;;;;;5081351;28;20055;-83
2022/01/01 06:00:43;;;;;;;108.47;48.50;;;;;;;;;;5098387;28;20516;-83
2022/01/01 06:03:09;;;;;;;102.57;47.05;;;;;;;;;;5116905;28;20047;-82
2022/01/01 06:05:35;;;;;;;110.20;47.63;;;;;;;;;;5098002;28;20132;-83
2022/01/01 06:08:01;;;;;;;105.50;44.58;;;;;;;;;;5097973;28;20051;-83
2022/01/01 06:10:28;;;;;;;106.25;43.63;;;11.30;99.90;;;;;;5081344;28;20055;-82
2022/01/01 06:12:54;;;;;;;94.05;42.33;;;;;;;;;;5081491;28;20055;-82
2022/01/01 06:15:21;;;;;;;100.50;41.50;;;11.30;99.90;;;;;;5081187;28;20036;-82
2022/01/01 06:17:47;;;;;;;89.43;39.67;;;;;;;;;;5081418;28;20050;-82
2022/01/01 06:20:13;;;;;;;93.47;37.85;;;;;;;;;;5081369;28;20059;-82
2022/01/01 06:22:39;;;;;;;83.75;36.58;;;12.10;99.90;;;;;;5081068;28;20040;-83
2022/01/01 06:25:06;;;;;;;84.05;33.97;;;;;;;;;;5097666;28;20048;-84
2022/01/01 06:27:32;;;;;;;82.72;32.35;;;;;;;;;;5081038;28;20489;-82
2022/01/01 06:29:58;;;;;;;87.57;32.47;;;;;;;;;;5097947;28;20050;-83
2022/01/01 06:32:24;;;;;;;75.15;30.92;;;;;;;;;;5098234;28;20043;-82
2022/01/01 06:34:50;;;;;;;69.22;29.15;;;;;;;;;;5116050;28;20083;-83
2022/01/01 06:37:16;;;;;;;76.28;29.08;;;11.30;99.90;;;;;;5080902;28;20044;-84
2022/01/01 06:39:42;;;;;;;80.47;27.98;;;;;;;;;;5115592;28;20050;-83
2022/01/01 06:42:08;;;;;;;78.20;29.02;;;11.30;99.90;;;;;;5098100;28;20048;-81
2022/01/01 06:44:34;;;;;;;77.80;29.10;;;;;;;;;;5097502;28;20052;-83
2022/01/01 06:47:00;;;;;;;73.30;28.77;;;11.30;99.90;;;;;;5097421;28;20048;-82
2022/01/01 06:49:26;;;;;;;76.82;28.50;;;;;;;;;;5097105;28;20508;-84
2022/01/01 06:51:52;;;;;;;65.75;27.52;;;;;;;;;;5115484;28;20483;-83
2022/01/01 06:54:18;;;;;;;69.28;28.77;;;;;;;;;;5115558;28;20132;-82
2022/01/01 06:56:43;;;;;;;76.28;27.67;;;11.40;99.90;;;;;;5097521;28;20138;-82
2022/01/01 06:59:09;;;;;;;76.95;28.27;;;13.10;99.90;;;;;;5097901;28;20144;-83
2022/01/01 07:01:38;;;;;;;77.75;29.08;;;;;;;;;;5115945;28;20063;-82
2022/01/01 07:04:04;;;;;;;85.78;28.80;;;;;;;;;;5080074;28;20048;-82
2022/01/01 07:06:31;;;;;;;77.68;28.77;;;;;;;;;;5097843;28;20043;-82
2022/01/01 07:08:57;;;;;;;81.38;29.52;;;;;;;;;;5081068;28;20476;-83
2022/01/01 07:11:23;;;;;;;82.45;30.65;;;;;;;;;;5097328;28;20047;-82
2022/01/01 07:13:49;;;;;;;86.03;31.05;;;;;;;;;;5115515;28;20043;-83
2022/01/01 07:16:15;;;;;;;86.78;31.83;;;11.30;99.90;;;;;;5097094;28;20039;-82
2022/01/01 07:18:41;;;;;;;82.25;31.65;;;;;;;;;;5096778;28;20712;-82
2022/01/01 07:21:07;;;;;;;83.43;31.38;;;;;;;;;;5080106;28;20100;-82
2022/01/01 07:23:33;;;;;;;97.93;33.08;;;;;;;;;;5080126;28;20451;-83
2022/01/01 07:25:59;;;;;;;83.25;32.33;;;;;;;;;;5080462;28;20048;-82
2022/01/01 07:28:25;;;;;;;87.00;32.75;;;;;;;;;;5115956;28;20489;-83
2022/01/01 07:30:51;;;;;;;94.22;32.90;;;;;;;;;;5080879;28;20109;-82
2022/01/01 07:33:17;;;;;;;98.50;33.35;;;;;;;;;;5116000;28;20043;-82
2022/01/01 07:35:43;;;;;;;83.25;32.78;;;;;;;;;;5080526;28;20058;-82
2022/01/01 07:38:10;;;;;;;86.00;32.33;;;;;;;;;;5080521;28;20050;-82
2022/01/01 07:40:38;;;;;;;94.25;33.85;;;11.30;99.90;;;;;;5115194;28;20047;-81
2022/01/01 07:43:12;;;;;;;86.93;32.22;;;12.80;99.90;;;;;;5113875;28;20549;-81
2022/01/01 07:45:38;;;;;;;87.82;33.95;;;;;;;;;;5079773;28;20572;-81
2022/01/01 07:48:05;;;;;;;84.45;33.67;;;11.30;99.90;;;;;;5096550;28;20055;-81
2022/01/01 07:50:31;;;;;;;94.18;35.80;;;;;;;;;;5096296;28;20108;-82
2022/01/01 07:52:57;;;;;;;100.72;35.60;;;11.30;99.90;;;;;;5079383;28;20108;-81
2022/01/01 07:55:23;;;;;;;90.47;34.83;;;;;;;;;;5096251;28;20043;-82
2022/01/01 07:57:49;;;;;;;97.95;35.78;;;;;;;;;;5079321;28;20131;-81
2022/01/01 08:00:15;;;;;;;92.47;35.42;;;11.30;99.90;;;;;;5078990;28;20549;-82
2022/01/01 08:02:45;;;;;;;89.43;35.80;;;11.30;99.90;;;;;;5114610;28;20048;-81
2022/01/01 08:05:12;;;;;;;92.68;36.28;;;11.80;99.90;;;;;;5079380;28;20048;-81
2022/01/01 08:07:39;;;;;;;97.97;37.78;;;11.40;99.90;;;;;;5096253;28;20478;-81
2022/01/01 08:10:06;;;;;;;95.32;36.75;;;14.70;99.90;;;;;;5096100;28;20051;-82
2022/01/01 08:12:32;;;;;;;97.30;37.20;;;;;;;;;;5095750;28;20104;-82
2022/01/01 08:14:58;;;;;;;104.22;38.40;;;;;;;;;;5095264;28;20496;-82
2022/01/01 08:17:24;;;;;;;100.05;38.30;;;11.40;99.90;;;;;;5113836;28;20066;-81
2022/01/01 08:19:51;;;;;;;102.60;38.78;;;;;;;;;;5096981;28;20539;-81
2022/01/01 08:22:17;;;;;;;102.15;40.33;;;;;;;;;;5080150;28;20052;-81
2022/01/01 08:24:43;;;;;;;97.55;39.00;;;;;;;;;;5096725;28;20093;-82
2022/01/01 08:27:09;;;;;;;97.97;40.80;;;11.50;99.90;;;;;;5114644;28;20083;-82
2022/01/01 08:29:35;;;;;;;101.18;40.22;;;;;;;;;;5096606;28;20044;-83
2022/01/01 08:32:01;;;;;;;92.93;39.40;;;;;;;;;;5079324;28;20112;-82
2022/01/01 08:34:27;;;;;;;100.47;40.97;;;;;;;;;;5096374;28;20039;-82
2022/01/01 08:36:53;;;;;;;96.80;39.72;;;;;;;;;;5095607;28;20049;-82
2022/01/01 08:39:19;;;;;;;99.38;39.92;;;;;;;;;;5114038;28;20051;-82
2022/01/01 08:41:46;;;;;;;89.90;39.85;;;11.60;99.90;;;;;;5078553;28;20043;-83
2022/01/01 08:44:12;;;;;;;87.97;38.63;;;;;;;;;;5114126;28;20755;-82
2022/01/01 08:46:38;;;;;;;96.75;39.65;;;;;;;;;;5097521;28;20051;-83
2022/01/01 08:49:05;;;;;;;84.43;37.97;;;;;;;;;;5079062;28;20051;-84
2022/01/01 08:51:33;;;;;;;85.30;37.55;;;11.70;99.90;;;;;;5079108;28;20043;-83
2022/01/01 08:53:59;;;;;;;71.13;36.03;;;;;;;;;;5078564;28;20482;-83
2022/01/01 08:56:25;;;;;;;77.53;35.88;;;;;;;;;;5078937;28;20070;-83
2022/01/01 08:58:51;;;;;;;78.38;35.28;;;;;;;;;;5080135;28;20122;-83
2022/01/01 09:01:18;;;;;;;83.35;35.00;;;;;;;;;;5087980;28;20051;-83
2022/01/01 09:03:44;;;;;;;82.75;35.10;;;;;;;;;;5114127;28;20054;-82
2022/01/01 09:06:10;;;;;;;73.35;33.97;;;11.90;99.90;;;;;;5075688;28;20439;-83
2022/01/01 09:08:38;;;;;;;70.00;33.75;;;11.70;99.90;;;;;;5095342;28;20122;-83
2022/01/01 09:11:05;;;;;;;65.88;31.95;;;;;;;;;;5077976;28;20557;-84
2022/01/01 09:13:31;;;;;;;71.30;30.63;;;;;;;;;;5077421;28;20138;-84
2022/01/01 09:15:58;;;;;;;70.32;30.40;;;;;;;;;;5094715;28;20051;-83
2022/01/01 09:18:24;;;;;;;57.60;28.95;;;;;;;;;;5094338;28;20035;-83
2022/01/01 09:20:53;;;;;;;68.57;29.92;;;;;;;;;;5128494;28;20080;-83
2022/01/01 09:23:19;;;;;;;62.38;26.85;;;;;;;;;;5114884;28;20058;-83
2022/01/01 09:25:45;;;;;;;57.40;26.77;;;;;;;;;;5098991;27;20051;-83
2022/01/01 09:28:13;;;;;;;47.55;25.05;;;12.10;99.90;;;;;;5102245;27;20039;-82
2022/01/01 09:30:39;;;;;;;54.97;25.80;;;;;;;;;;5119008;27;20126;-83
2022/01/01 09:33:05;;;;;;;51.95;24.27;;;;;;;;;;5108519;28;20497;-84
2022/01/01 09:35:31;;;;;;;50.95;24.88;;;;;;;;;;5087410;28;20146;-82
2022/01/01 09:37:57;;;;;;;45.35;22.55;;;;;;;;;;5098541;28;20054;-83
2022/01/01 09:40:23;;;;;;;46.25;22.38;;;;;;;;;;5097815;28;20062;-84
2022/01/01 09:42:50;;;;;;;46.17;21.35;;;;;;;;;;5098800;28;20035;-84
2022/01/01 09:45:16;;;;;;;49.58;22.55;;;;;;;;;;5097843;28;20504;-84
2022/01/01 09:47:43;;;;;;;43.92;20.50;;;12.30;99.90;;;;;;5098539;28;20862;-82
2022/01/01 09:50:09;;;;;;;46.63;20.13;;;13.00;99.90;;;;;;5110089;28;20398;-83
2022/01/01 09:52:36;;;;;;;41.63;19.48;;;12.40;99.90;;;;;;5081601;28;20101;-83
2022/01/01 09:55:02;;;;;;;42.40;19.92;;;;;;;;;;5117397;28;20039;-84
2022/01/01 09:57:28;;;;;;;48.00;19.27;;;12.50;99.90;;;;;;5099122;28;20481;-82
2022/01/01 09:59:57;;;;;;;43.00;18.38;;;;;;;;;;5099955;28;20047;-83
2022/01/01 10:02:23;;;;;;;43.25;17.63;;;;;;;;;;5098783;28;20100;-82
2022/01/01 10:04:51;;;;;;;40.63;17.90;;;12.70;99.90;;;;;;5099381;28;20405;-83
2022/01/01 10:07:18;;;;;;;38.67;16.90;;;;;;;;;;5081734;28;20055;-83
2022/01/01 10:09:44;;;;;;;31.88;16.45;;;;;;;;;;5098036;28;20050;-83
2022/01/01 10:12:14;;;;;;;35.88;15.43;;;12.70;99.90;;;;;;5080588;28;20056;-83
2022/01/01 10:14:45;;;;;;;35.08;16.25;;;12.80;99.90;;;;;;5116627;28;20054;-82
2022/01/01 10:17:20;;;;;;;30.83;15.63;;;12.80;99.90;;;;;;5080736;28;20058;-83
2022/01/01 10:19:48;;;;;;;32.33;14.80;;;12.90;99.90;;;;;;5096967;28;20084;-83
2022/01/01 10:22:21;;;;;;;31.23;14.48;;;12.90;99.90;;;;;;5096973;28;20048;-83
2022/01/01 10:27:42;;;;;;;28.17;13.00;;;12.80;99.90;;;;;;5115272;28;20062;-84
2022/01/01 10:30:09;;;;;;;27.13;12.20;;;13.30;99.90;;;;;;5096399;28;20379;-83
2022/01/01 10:32:35;;;;;;;30.15;12.32;;;;;;;;;;5096895;28;20138;-82
2022/01/01 10:35:02;;;;;;;28.52;11.70;;;12.80;99.90;;;;;;5096776;28;20083;-83
2022/01/01 10:37:29;;;;;;;28.27;11.13;;;12.60;99.90;;;;;;5095961;28;20051;-84
2022/01/01 10:39:55;;;;;;;25.70;11.02;;;15.70;99.90;;;;;;5097429;28;20039;-82
2022/01/01 10:42:21;;;;;;;26.58;10.77;;;;;;;;;;5079828;28;20077;-82
2022/01/01 10:44:52;;;;;;;30.73;12.07;;;12.80;99.90;;;;;;5115417;28;20047;-82
2022/01/01 10:47:26;;;;;;;24.38;11.15;;;13.00;99.90;;;;;;5114997;28;20042;-82
2022/01/01 10:50:37;;;;;;;28.90;12.00;;;12.70;99.90;;;;;;5080473;28;20047;-83
2022/01/01 10:52:43;;;;;;;26.83;11.55;;;12.40;99.90;;;;;;5100668;28;20047;-83
2022/01/01 10:55:10;;;;;;;26.75;10.70;;;12.70;99.90;;;;;;5115207;28;20078;-83
2022/01/01 10:57:41;;;;;;;28.67;11.27;;;12.50;99.90;;;;;;5079438;28;20052;-83
2022/01/01 11:00:08;;;;;;;26.33;10.70;;;15.60;99.90;;;;;;5114945;28;20603;-83
2022/01/01 11:02:34;;;;;;;27.73;10.50;;;12.70;99.90;;;;;;5097605;28;20047;-83
2022/01/01 11:05:03;;;;;;;22.13;9.15;;;;;;;;;;5080302;28;20087;-84
2022/01/01 11:07:29;;;;;;;22.10;9.43;;;;;;;;;;5080284;28;20484;-84
2022/01/01 11:09:56;;;;;;;24.77;9.07;;;12.70;99.90;;;;;;5114909;28;20123;-83
2022/01/01 11:12:27;;;;;;;25.33;9.23;;;12.70;99.90;;;;;;5096924;28;20495;-83
2022/01/01 11:14:58;;;;;;;21.55;9.18;;;12.80;99.90;;;;;;5097430;28;20546;-84
2022/01/01 11:17:24;;;;;;;29.33;9.70;;;;;;;;;;5080157;28;20043;-84
2022/01/01 11:19:51;;;;;;;22.25;9.40;;;;;;;;;;5080250;28;20050;-83
2022/01/01 11:22:18;;;;;;;21.83;9.40;;;12.70;99.90;;;;;;5081812;28;20076;-83
2022/01/01 11:24:44;;;;;;;27.30;10.00;;;;;;;;;;5117758;28;20059;-83
2022/01/01 11:27:11;;;;;;;26.75;9.73;;;;;;;;;;5117384;28;20047;-82
2022/01/01 11:29:39;;;;;;;21.92;9.45;;;12.70;99.90;;;;;;5080712;28;20474;-82
2022/01/01 11:32:07;;;;;;;20.40;9.68;;;12.70;99.90;;;;;;5098295;28;20039;-83
2022/01/01 11:34:38;;;;;;;23.05;9.75;;;12.70;99.90;;;;;;5100422;28;20059;-82
2022/01/01 11:37:05;;;;;;;18.98;8.68;;;12.70;99.90;;;;;;5097781;28;20061;-83
2022/01/01 11:39:31;;;;;;;27.48;9.70;;;;;;;;;;5082169;28;20060;-82
2022/01/01 11:42:15;;;;;;;23.92;9.02;;;12.50;99.90;;;;;;5081593;28;20042;-83
2022/01/01 11:44:42;;;;;;;19.45;8.43;;;12.70;99.90;;;;;;5103971;28;20131;-82
2022/01/01 11:47:18;;;;;;;17.17;9.20;;;12.90;99.90;;;;;;5110646;28;20058;-82
2022/01/01 11:49:45;;;;;;;21.00;8.68;;;;;;;;;;5131442;28;20059;-82
2022/01/01 11:52:11;;;;;;;21.55;9.27;;;;;;;;;;5132706;28;20078;-82
2022/01/01 11:54:42;;;;;;;22.83;9.57;;;12.70;99.90;;;;;;5132406;28;20077;-82
2022/01/01 11:57:25;;;;;;;20.15;9.27;;;12.40;99.90;;;;;;5118533;28;20040;-84
2022/01/01 12:00:00;;;;;;;20.65;8.70;;;12.70;99.90;;;;;;5102871;28;20058;-83
2022/01/01 12:02:26;;;;;;;18.17;8.90;;;;;;;;;;5137754;28;20074;-81
2022/01/01 12:04:55;;;;;;;24.85;8.80;;;12.70;99.90;;;;;;5120882;28;20047;-83
2022/01/01 12:07:22;;;;;;;20.98;9.18;;;;;;;;;;5132418;28;20078;-83
2022/01/01 12:10:06;;;;;;;23.23;9.70;;;12.70;99.90;;;;;;5118489;28;20039;-83
2022/01/01 12:12:38;;;;;;;22.10;9.25;;;14.70;99.90;;;;;;5084916;28;20044;-83
2022/01/01 12:15:07;;;;;;;22.60;9.45;;;12.60;99.90;;;;;;5101106;28;20052;-83
2022/01/01 12:17:44;;;;;;;18.85;8.90;;;12.70;99.90;;;;;;5081901;28;20043;-84
2022/01/01 12:20:23;;;;;;;25.52;9.43;;;15.40;99.90;;;;;;5080193;28;20071;-82
2022/01/01 12:22:49;;;;;;;22.58;8.93;;;14.90;99.90;;;;;;5098143;28;20063;-84
2022/01/01 12:25:27;;;;;;;20.88;9.20;;;12.80;99.90;;;;;;5084348;28;20462;-82
2022/01/01 12:27:55;;;;;;;21.13;9.18;;;12.80;99.90;;;;;;5081949;28;20048;-83
2022/01/01 12:30:31;;;;;;;22.95;8.90;;;12.60;99.90;;;;;;5080705;28;20051;-83
2022/01/01 12:32:57;;;;;;;18.73;9.27;;;;;;;;;;5097229;28;20501;-82
2022/01/01 12:35:40;;;;;;;24.77;8.98;;;12.80;99.90;;;;;;5096640;28;20131;-83
2022/01/01 12:38:23;;;;;;;21.10;9.30;;;12.80;99.90;;;;;;5096581;28;20043;-83
2022/01/01 12:41:31;;;;;;;22.67;9.13;;;12.80;99.90;;;;;;5079159;28;20081;-83
2022/01/01 12:44:03;;;;;;;20.70;9.05;;;12.80;99.90;;;;;;5065546;28;20060;-84
2022/01/01 12:46:31;;;;;;;22.13;9.50;;;12.70;99.90;;;;;;5096148;28;20096;-83
2022/01/01 12:49:00;;;;;;;24.27;9.13;;;12.80;99.90;;;;;;5079413;28;20052;-83
2022/01/01 12:51:28;;;;;;;18.70;9.65;;;12.80;99.90;;;;;;5079691;28;20075;-84
2022/01/01 12:53:56;;;;;;;21.55;10.23;;;12.80;99.90;;;;;;5095842;28;20074;-83
2022/01/01 12:56:22;;;;;;;20.95;8.93;;;;;;;;;;5079621;28;20035;-83
2022/01/01 12:58:51;;;;;;;19.95;9.32;;;12.80;99.90;;;;;;5079642;28;20048;-83
2022/01/01 13:01:28;;;;;;;17.95;8.57;;;14.90;99.90;;;;;;5078455;28;20066;-83
2022/01/01 13:04:01;;;;;;;17.55;8.90;;;12.60;99.90;;;;;;5114250;28;20066;-83
2022/01/01 13:06:31;;;;;;;21.98;9.48;;;12.60;99.90;;;;;;5095494;28;20610;-83
2022/01/01 13:09:06;;;;;;;21.10;10.07;;;11.80;99.90;;;;;;5095753;28;20059;-84
2022/01/01 13:11:35;;;;;;;22.92;9.15;;;12.80;99.90;;;;;;5096800;28;20051;-83
2022/01/01 13:14:01;;;;;;;17.92;9.10;;;;;;;;;;5095753;28;20043;-83
2022/01/01 13:16:27;;;;;;;17.98;9.10;;;12.80;99.90;;;;;;5095657;28;20144;-83
2022/01/01 13:18:53;;;;;;;21.85;9.00;;;;;;;;;;5078747;28;20405;-84
2022/01/01 13:21:20;;;;;;;18.92;8.80;;;12.80;99.90;;;;;;5078972;28;20508;-83
2022/01/01 13:23:46;;;;;;;20.90;8.55;;;;;;;;;;5095862;28;20040;-83
2022/01/01 13:26:12;;;;;;;25.15;8.88;;;;;;;;;;5095254;28;20047;-83
2022/01/01 13:28:38;;;;;;;22.35;9.10;;;;;;;;;;5114068;28;20089;-83
2022/01/01 13:31:06;;;;;;;18.25;8.55;;;12.80;99.90;;;;;;5078509;28;20044;-83
2022/01/01 13:33:34;;;;;;;18.17;9.15;;;12.80;99.90;;;;;;5078656;28;20043;-83
2022/01/01 13:36:03;;;;;;;22.58;9.13;;;12.80;99.90;;;;;;5095773;28;20047;-83
2022/01/01 13:38:29;;;;;;;22.45;8.70;;;;;;;;;;5078227;28;20118;-83